Time;durP1;ratioP1;P1;durP2;ratioP2;P2;SDS_P1;SDS_P2;PMS_P1;PMS_P2;Temp;Humidity;BMP_temperature;BMP_pressure;BME280_temperature;BME280_humidity;BME280_pressure;Samples;Min_cycle;Max_cycle;Signal;HPM_P1;HPM_P2
2022/10/11 00:00:40;;;;;;;20.27;2.40;;;;;;;6.31;100.00;154116.63;5035629;28;20476;-73
2022/10/11 00:03:06;;;;;;;16.42;2.25;;;;;;;6.27;100.00;154107.66;5055058;28;20070;-73
2022/10/11 00:05:43;;;;;;;20.15;3.03;;;;;;;6.21;100.00;154092.34;5052783;28;20146;-74
2022/10/11 00:08:19;;;;;;;18.63;3.30;;;;;;;6.20;100.00;154089.78;5096338;27;20509;-74
2022/10/11 00:11:02;;;;;;;22.02;2.75;;;;;;;6.15;100.00;154077.00;5052581;28;20138;-74
2022/10/11 00:13:39;;;;;;;22.10;2.47;;;;;;;6.13;100.00;154071.88;5034837;28;20799;-72
2022/10/11 00:16:15;;;;;;;15.30;2.50;;;;;;;6.12;100.00;154069.31;5060241;27;20146;-73
2022/10/11 00:18:52;;;;;;;12.27;2.25;;;;;;;6.06;100.00;154055.22;5057274;28;20134;-74
2022/10/11 00:21:29;;;;;;;23.42;2.67;;;;;;;6.06;100.00;154055.22;5060413;28;20139;-72
2022/10/11 00:24:05;;;;;;;16.13;2.70;;;;;;;6.15;100.00;154077.00;5057063;28;20138;-74
2022/10/11 00:26:42;;;;;;;18.15;2.88;;;;;;;6.15;100.00;154077.00;5038174;28;20668;-74
2022/10/11 00:29:18;;;;;;;20.67;2.83;;;;;;;6.21;100.00;154092.34;5092882;27;20103;-73
2022/10/11 00:31:55;;;;;;;17.60;2.60;;;;;;;6.19;100.00;154088.47;5058227;28;20145;-74
2022/10/11 00:34:31;;;;;;;22.05;3.00;;;;;;;6.15;100.00;154077.00;5039259;28;20588;-74
2022/10/11 00:37:08;;;;;;;23.33;3.15;;;;;;;6.13;100.00;154071.88;5072862;27;20087;-74
2022/10/11 00:39:45;;;;;;;20.13;2.88;;;;;;;6.09;100.00;154061.66;5040546;28;20136;-74
2022/10/11 00:42:24;;;;;;;13.55;2.80;;;;;;;6.01;100.00;154042.47;5059531;28;21033;-74
2022/10/11 00:45:24;;;;;;;17.70;2.85;;;;;;;5.98;100.00;154036.03;5076039;27;20404;-73
2022/10/11 00:48:11;;;;;;;22.17;2.90;;;;;;;5.97;100.00;154032.19;5076419;27;20394;-74
2022/10/11 00:50:48;;;;;;;15.85;2.50;;;;;;;5.94;100.00;154025.78;5098356;27;20403;-74
2022/10/11 00:53:32;;;;;;;16.02;2.63;;;;;;;5.90;100.00;154014.28;5080542;27;20149;-73
2022/10/11 00:56:17;;;;;;;21.13;3.25;;;;;;;5.97;100.00;154033.50;5091460;27;20770;-73
2022/10/11 00:58:55;;;;;;;14.15;2.65;;;;;;;5.97;100.00;154033.50;5058902;28;20384;-74
2022/10/11 01:26:36;;;;;;;16.75;2.25;;;;;;;5.91;100.00;154016.81;5067483;27;20411;-77
2022/10/11 01:29:38;;;;;;;20.05;3.40;;;;;;;5.81;100.00;153993.78;5047853;28;20405;-77
2022/10/11 01:32:31;;;;;;;24.92;3.25;;;;;;;5.72;100.00;153969.50;5058681;28;20404;-76
2022/10/11 01:35:27;;;;;;;18.88;2.65;;;;;;;5.72;100.00;153969.50;5059354;28;20410;-77
2022/10/11 01:38:20;;;;;;;27.00;2.70;;;;;;;5.65;100.00;153952.84;5033096;27;1931853;-76
2022/10/11 01:41:08;;;;;;;18.58;2.95;;;;;;;5.60;100.00;153940.09;5061737;28;20403;-77
2022/10/11 01:43:46;;;;;;;25.77;3.63;;;;;;;5.58;100.00;153936.25;5123071;27;20391;-75
2022/10/11 01:46:23;;;;;;;13.48;3.03;;;;;;;5.52;100.00;153919.63;5058374;28;20399;-77
2022/10/11 01:49:03;;;;;;;10.85;2.30;;;;;;;5.60;100.00;153941.38;5102603;27;20423;-76
2022/10/11 01:51:44;;;;;;;15.43;2.13;;;;;;;5.58;100.00;153935.00;5104722;27;20865;-75
2022/10/11 01:54:23;;;;;;;27.70;4.00;;;;;;;5.59;100.00;153937.53;5045920;28;20412;-75
2022/10/11 01:57:19;;;;;;;20.05;2.95;;;;;;;5.63;100.00;153949.06;5047159;28;20940;-77
2022/10/11 02:00:11;;;;;;;16.60;2.70;;;;;;;5.62;100.00;153945.22;5103792;27;20750;-76
2022/10/11 02:03:10;;;;;;;19.38;3.10;;;;;;;5.57;100.00;153932.41;5049340;28;21003;-77
2022/10/11 02:05:55;;;;;;;18.67;2.45;;;;;;;5.53;100.00;153923.47;5045678;28;20953;-76
2022/10/11 02:08:56;;;;;;;14.65;2.47;;;;;;;5.54;100.00;153924.72;5076739;27;20786;-76
2022/10/11 02:11:47;;;;;;;18.45;2.92;;;;;;;5.47;100.00;153909.41;5075876;27;20405;-75
2022/10/11 02:14:30;;;;;;;22.95;3.60;;;;;;;5.46;100.00;153905.53;5098541;27;20343;-77
2022/10/11 02:17:18;;;;;;;20.65;3.05;;;;;;;5.38;100.00;153886.38;5079775;28;20394;-77
2022/10/11 02:19:57;;;;;;;21.55;3.80;;;;;;;5.37;100.00;153882.53;5080881;27;20387;-76
2022/10/11 02:22:37;;;;;;;23.30;3.15;;;;;;;5.31;100.00;153868.47;5104317;27;20396;-76
2022/10/11 02:25:20;;;;;;;18.63;3.03;;;;;;;5.25;100.00;153853.13;5102592;27;20393;-75
2022/10/11 02:28:02;;;;;;;14.40;2.70;;;;;;;5.20;100.00;153840.41;5063739;28;20400;-77
2022/10/11 02:30:42;;;;;;;20.58;3.00;;;;;;;5.19;100.00;153837.81;5059058;28;20411;-77
2022/10/11 02:33:26;;;;;;;24.73;3.60;;;;;;;5.15;100.00;153827.59;5088858;27;20739;-76
2022/10/11 02:36:14;;;;;;;23.95;3.50;;;;;;;5.12;100.00;153819.91;5057498;28;20410;-77
2022/10/11 02:38:59;;;;;;;17.13;2.90;;;;;;;5.09;100.00;153813.53;5088790;27;20747;-75
2022/10/11 02:41:38;;;;;;;15.45;2.85;;;;;;;5.11;100.00;153817.38;5063524;28;20402;-76
2022/10/11 02:44:22;;;;;;;22.42;3.25;;;;;;;5.08;100.00;153810.97;5060083;28;20403;-78
2022/10/11 02:46:59;;;;;;;22.25;3.28;;;;;;;5.06;100.00;153807.09;5102098;27;20389;-76
2022/10/11 02:49:37;;;;;;;21.58;3.38;;;;;;;5.06;100.00;153807.09;5063864;28;20394;-76
2022/10/11 02:52:13;;;;;;;18.05;3.55;;;;;;;5.15;100.00;153828.84;5062429;28;20138;-76
2022/10/11 02:54:50;;;;;;;19.15;3.53;;;;;;;5.13;100.00;153823.75;5099520;27;20059;-77
2022/10/11 02:57:26;;;;;;;13.73;3.15;;;;;;;5.17;100.00;153833.97;5059722;28;20147;-76
2022/10/11 03:00:04;;;;;;;19.45;3.47;;;;;;;5.22;100.00;153845.50;5065497;28;20138;-75
2022/10/11 03:02:41;;;;;;;16.83;2.83;;;;;;;5.25;100.00;153854.44;5060659;28;20399;-77
2022/10/11 03:05:18;;;;;;;22.45;2.65;;;;;;;5.24;100.00;153850.59;5081579;27;20768;-78
2022/10/11 03:07:57;;;;;;;16.90;2.92;;;;;;;5.21;100.00;153844.19;5099904;27;20380;-77
2022/10/11 03:10:43;;;;;;;22.15;2.70;;;;;;;5.19;100.00;153837.81;5040823;28;20935;-75
2022/10/11 03:13:32;;;;;;;20.52;3.08;;;;;;;5.17;100.00;153832.69;5102259;27;20365;-77
2022/10/11 03:16:09;;;;;;;20.85;3.03;;;;;;;5.12;100.00;153819.91;5117904;27;20136;-77
2022/10/11 03:18:45;;;;;;;17.67;2.85;;;;;;;5.09;100.00;153813.53;5061058;28;20143;-77
2022/10/11 03:21:23;;;;;;;19.80;3.22;;;;;;;5.04;100.00;153802.00;5102065;27;20136;-76
2022/10/11 03:24:00;;;;;;;14.63;2.88;;;;;;;4.98;100.00;153786.69;5036476;28;20419;-76
2022/10/11 03:26:37;;;;;;;14.95;3.10;;;;;;;5.01;100.00;153793.06;5103269;27;20133;-77
2022/10/11 03:29:13;;;;;;;14.88;2.72;;;;;;;5.00;100.00;153791.78;5083840;27;20421;-76
2022/10/11 03:31:50;;;;;;;20.00;2.90;;;;;;;4.99;100.00;153787.94;5122796;27;20135;-76
2022/10/11 03:34:26;;;;;;;18.17;3.35;;;;;;;5.00;100.00;153790.53;5084665;27;20154;-76
2022/10/11 03:37:03;;;;;;;17.27;3.25;;;;;;;4.97;100.00;153784.16;5102222;27;20546;-79
2022/10/11 03:39:39;;;;;;;24.08;3.92;;;;;;;4.94;100.00;153775.19;5123280;27;20138;-76
2022/10/11 03:42:18;;;;;;;29.63;4.50;;;;;;;4.87;100.00;153759.81;5120079;27;20402;-75
2022/10/11 03:44:55;;;;;;;18.80;3.75;;;;;;;4.90;100.00;153766.25;5103594;27;20355;-77
2022/10/11 03:47:34;;;;;;;21.65;4.20;;;;;;;4.86;100.00;153757.28;5062138;28;20381;-76
2022/10/11 03:50:11;;;;;;;15.65;3.45;;;;;;;4.88;100.00;153761.13;5085392;27;20383;-74
2022/10/11 03:52:47;;;;;;;25.05;3.72;;;;;;;4.92;100.00;153771.34;5060269;28;20150;-76
2022/10/11 03:55:24;;;;;;;19.90;3.80;;;;;;;5.17;100.00;153832.69;5060960;28;20134;-76
2022/10/11 03:58:00;;;;;;;17.42;3.38;;;;;;;5.31;100.00;153868.47;5041610;28;20143;-76
2022/10/11 04:00:38;;;;;;;23.65;4.28;;;;;;;5.46;100.00;153906.88;5057795;28;20143;-76
2022/10/11 04:03:12;;;;;;;23.48;4.60;;;;;;;5.62;100.00;153945.22;5124014;27;1237136;-76
2022/10/11 04:05:49;;;;;;;17.60;4.43;;;;;;;5.70;100.00;153964.41;5061283;28;20399;-76
2022/10/11 04:08:38;;;;;;;17.65;3.25;;;;;;;5.61;100.00;153942.63;5099594;27;20393;-77
2022/10/11 04:11:15;;;;;;;22.00;3.58;;;;;;;5.64;100.00;153950.31;5061847;28;20595;-76
2022/10/11 04:13:51;;;;;;;17.92;3.30;;;;;;;5.57;100.00;153932.41;5084113;27;20144;-76
2022/10/11 04:16:28;;;;;;;17.77;3.42;;;;;;;5.54;100.00;153924.72;5061161;28;20130;-75
2022/10/11 04:19:07;;;;;;;25.38;3.60;;;;;;;5.52;100.00;153919.63;5145856;27;20404;-77
2022/10/11 04:21:45;;;;;;;19.95;3.58;;;;;;;5.42;100.00;153896.59;5084858;27;20369;-76
2022/10/11 04:24:21;;;;;;;20.85;3.38;;;;;;;5.35;100.00;153878.75;5096336;27;20511;-76
2022/10/11 04:26:58;;;;;;;19.50;3.25;;;;;;;5.28;100.00;153859.56;5043923;28;20146;-74
2022/10/11 04:29:34;;;;;;;18.48;3.28;;;;;;;5.25;100.00;153854.44;5096234;27;20136;-75
2022/10/11 04:32:11;;;;;;;16.80;3.70;;;;;;;5.20;100.00;153841.66;5066584;28;20583;-76
2022/10/11 04:34:47;;;;;;;18.40;2.50;;;;;;;5.13;100.00;153823.75;5101851;27;20140;-76
2022/10/11 04:37:24;;;;;;;23.92;3.15;;;;;;;5.14;100.00;153825.00;5041716;28;20131;-76
2022/10/11 04:39:59;;;;;;;15.38;3.47;;;;;;;5.26;100.00;153856.97;5092544;27;1234501;-76
2022/10/11 04:42:35;;;;;;;20.10;3.00;;;;;;;5.26;100.00;153856.97;5104909;27;20392;-77
2022/10/11 04:45:12;;;;;;;19.38;3.20;;;;;;;5.25;100.00;153853.13;5083805;27;20836;-75
2022/10/11 04:48:01;;;;;;;21.00;3.42;;;;;;;5.17;100.00;153833.97;5062195;28;20387;-75
2022/10/11 04:50:37;;;;;;;19.10;3.30;;;;;;;5.14;100.00;153826.31;5045599;28;20132;-77
2022/10/11 04:53:17;;;;;;;16.33;3.00;;;;;;;5.10;100.00;153816.06;5067733;27;20392;-77
2022/10/11 04:56:03;;;;;;;21.52;2.75;;;;;;;5.06;100.00;153807.09;5065039;28;20217;-77
2022/10/11 04:58:40;;;;;;;15.25;3.17;;;;;;;5.02;100.00;153796.91;5066136;28;20868;-75
2022/10/11 05:01:16;;;;;;;17.40;3.20;;;;;;;4.98;100.00;153785.41;5088264;28;20141;-75
2022/10/11 05:03:53;;;;;;;13.02;2.70;;;;;;;4.93;100.00;153773.88;5084590;28;20130;-75
2022/10/11 05:06:31;;;;;;;15.48;2.70;;;;;;;4.89;100.00;153763.66;5060936;27;20397;-76
2022/10/11 05:09:06;;;;;;;12.07;2.33;;;;;;;4.98;100.00;153786.69;5109030;27;1194207;-75
2022/10/11 05:11:43;;;;;;;17.08;3.05;;;;;;;4.88;100.00;153762.41;5070661;28;20375;-75
2022/10/11 05:14:19;;;;;;;22.00;3.17;;;;;;;4.81;100.00;153744.50;5087968;27;20148;-76
2022/10/11 05:16:56;;;;;;;17.50;3.08;;;;;;;4.80;100.00;153740.66;5061202;28;20511;-75
2022/10/11 05:19:32;;;;;;;20.77;3.45;;;;;;;4.78;100.00;153735.53;5105107;27;20129;-77
2022/10/11 05:22:09;;;;;;;14.35;2.90;;;;;;;4.74;100.00;153726.59;5059752;28;20138;-75
2022/10/11 05:24:46;;;;;;;18.63;3.13;;;;;;;4.69;100.00;153713.84;5064616;28;20161;-75
2022/10/11 05:27:22;;;;;;;18.25;3.53;;;;;;;4.65;100.00;153703.59;5063199;28;20099;-76
2022/10/11 05:29:59;;;;;;;19.40;3.22;;;;;;;4.63;100.00;153699.81;5064424;28;20122;-76
2022/10/11 05:32:35;;;;;;;17.52;3.10;;;;;;;4.59;100.00;153689.53;5063008;27;20134;-75
2022/10/11 05:35:13;;;;;;;18.27;2.83;;;;;;;4.59;100.00;153689.53;5066649;28;20143;-75
2022/10/11 05:37:49;;;;;;;15.52;2.90;;;;;;;4.57;100.00;153683.16;5065428;28;20146;-75
2022/10/11 05:40:25;;;;;;;16.67;2.92;;;;;;;4.55;100.00;153678.06;5103112;27;20129;-75
2022/10/11 05:43:02;;;;;;;12.85;2.90;;;;;;;4.59;100.00;153689.53;5059851;28;20134;-77
2022/10/11 05:45:41;;;;;;;13.50;3.08;;;;;;;4.58;100.00;153685.75;5104377;27;20129;-76
2022/10/11 05:48:17;;;;;;;16.55;3.17;;;;;;;4.59;100.00;153688.28;5083616;28;20413;-75
2022/10/11 05:51:01;;;;;;;15.60;3.03;;;;;;;4.54;100.00;153676.78;5143469;27;20134;-74
2022/10/11 05:53:37;;;;;;;14.97;2.83;;;;;;;4.54;100.00;153676.78;5107356;27;1202730;-75
2022/10/11 05:56:21;;;;;;;14.23;2.88;;;;;;;4.48;100.00;153662.75;5055379;28;20416;-77
2022/10/11 05:58:58;;;;;;;20.38;2.92;;;;;;;4.47;100.00;153660.16;5061778;28;20903;-75
2022/10/11 06:01:35;;;;;;;11.63;2.70;;;;;;;4.52;100.00;153671.69;5064500;28;20366;-76
2022/10/11 06:04:15;;;;;;;17.42;2.63;;;;;;;4.52;100.00;153671.69;5100766;27;20353;-78
2022/10/11 06:06:52;;;;;;;15.15;2.95;;;;;;;4.53;100.00;153672.94;5062919;28;21052;-76
2022/10/11 06:09:29;;;;;;;8.73;2.53;;;;;;;4.53;100.00;153672.94;5103988;27;20132;-77
2022/10/11 06:12:05;;;;;;;10.82;2.80;;;;;;;4.60;100.00;153690.84;5062743;28;20052;-77
2022/10/11 06:14:56;;;;;;;11.95;2.45;;;;;;;4.63;100.00;153699.81;5081973;27;20405;-77
2022/10/11 06:17:50;;;;;;;15.73;2.83;;;;;;;4.67;100.00;153710.00;5123186;27;20328;-75
2022/10/11 06:20:47;;;;;;;12.13;2.90;;;;;;;4.82;100.00;153745.75;5097235;27;20211;-77
2022/10/11 06:23:49;;;;;;;10.63;2.63;;;;;;;5.02;100.00;153796.91;5085741;27;20353;-77
2022/10/11 06:26:50;;;;;;;13.82;3.17;;;;;;;5.29;100.00;153862.09;5132050;27;20504;-75
2022/10/11 06:29:57;;;;;;;18.80;3.60;;;;;;;5.55;100.00;153927.31;5022211;27;20437;-76
2022/10/11 06:32:50;;;;;;;15.98;3.05;;;;;;;5.71;100.00;153968.25;5186474;27;20463;-77
2022/10/11 06:36:02;;;;;;;17.65;3.35;;;;;;;5.83;100.00;153998.91;5123924;27;20421;-77
2022/10/11 06:39:00;;;;;;;19.73;4.32;;;;;;;5.89;100.00;154012.97;5109033;27;20774;-77
2022/10/11 06:41:53;;;;;;;10.65;3.13;;;;;;;5.95;100.00;154027.03;5071367;27;20849;-76
2022/10/11 06:44:48;;;;;;;18.88;3.67;;;;;;;6.00;100.00;154041.16;5083849;27;20400;-78
2022/10/11 06:47:42;;;;;;;13.75;3.30;;;;;;;6.16;100.00;154080.84;5165054;27;21005;-78
2022/10/11 06:50:39;;;;;;;13.40;3.67;;;;;;;6.24;100.00;154101.28;5085026;27;20477;-75
2022/10/11 06:53:41;;;;;;;16.52;3.78;;;;;;;6.37;100.00;154133.28;5121517;27;21016;-76
2022/10/11 06:56:36;;;;;;;13.43;3.42;;;;;;;6.58;100.00;154184.47;5187720;27;20470;-76
2022/10/11 06:59:33;;;;;;;23.85;4.05;;;;;;;6.68;100.00;154208.78;5096127;27;20437;-77
2022/10/11 07:02:27;;;;;;;16.55;3.67;;;;;;;6.81;100.00;154243.31;5123748;27;20132;-76
2022/10/11 07:05:25;;;;;;;15.23;3.90;;;;;;;6.96;100.00;154280.44;5115850;27;20131;-77
2022/10/11 07:08:19;;;;;;;14.45;3.25;;;;;;;7.08;100.00;154308.59;5144507;27;20134;-76
2022/10/11 07:11:20;;;;;;;13.07;3.28;;;;;;;7.22;100.00;154345.72;5042119;28;20803;-76
2022/10/11 07:14:14;;;;;;;18.67;4.00;;;;;;;7.36;100.00;154379.00;5179947;27;20430;-76
2022/10/11 07:17:20;;;;;;;20.73;4.15;;;;;;;7.48;100.00;154408.44;5128417;27;20497;-76
2022/10/11 07:20:28;;;;;;;18.17;4.25;;;;;;;7.65;100.00;154452.00;5138180;27;20895;-77
2022/10/11 07:23:27;;;;;;;22.25;3.70;;;;;;;7.75;100.00;154477.59;5130505;27;20598;-74
2022/10/11 07:26:18;;;;;;;20.52;3.80;;;;;;;7.87;100.00;154505.75;5086166;27;20542;-79
2022/10/11 07:29:13;;;;;;;18.55;3.40;;;;;;;8.02;100.00;154542.91;5137516;27;20354;-76
2022/10/11 07:32:03;;;;;;;21.25;3.60;;;;;;;8.21;100.00;154591.56;5079167;27;20452;-75
2022/10/11 07:34:38;;;;;;;16.92;3.40;;;;;;;8.36;100.00;154630.03;4063562;27;30842699;-76
2022/10/11 07:37:32;;;;;;;17.15;3.72;;;;;;;8.44;100.00;154647.97;5090572;27;20451;-74
2022/10/11 07:40:27;;;;;;;18.58;4.00;;;;;;;8.55;100.00;154677.47;5058620;28;20482;-75
2022/10/11 07:43:17;;;;;;;19.75;3.10;;;;;;;8.66;100.00;154703.09;5075482;27;20473;-76
2022/10/11 07:46:09;;;;;;;15.50;2.85;;;;;;;8.86;100.00;154753.06;5124424;27;20347;-74
2022/10/11 07:49:08;;;;;;;14.57;3.10;;;;;;;9.06;100.00;154804.34;5125437;27;20479;-74
2022/10/11 07:51:44;;;;;;;17.08;3.03;;;;;;;9.15;100.00;154826.09;4481458;27;19320750;-77
2022/10/11 07:54:39;;;;;;;19.13;3.30;;;;;;;9.29;100.00;154860.75;5126526;27;20126;-78
2022/10/11 07:57:35;;;;;;;20.02;3.50;;;;;;;9.37;100.00;154879.97;5103617;27;20360;-76
2022/10/11 08:00:42;;;;;;;13.93;2.83;;;;;;;9.52;100.00;154918.41;5101023;27;20359;-77
2022/10/11 08:03:36;;;;;;;14.82;3.10;;;;;;;9.71;100.00;154967.13;5184559;27;20524;-75
2022/10/11 08:06:31;;;;;;;16.48;3.42;;;;;;;9.82;100.00;154994.06;5142154;27;20416;-76
2022/10/11 08:09:07;;;;;;;10.80;2.55;;;;;;;9.96;100.00;155027.41;4614011;27;15030751;-76
2022/10/11 08:11:59;;;;;;;11.27;2.85;;;;;;;10.08;100.00;155058.22;5082725;27;20445;-78
2022/10/11 08:15:01;;;;;;;14.98;2.40;;;;;;;10.25;100.00;155101.81;5120208;27;20395;-75
2022/10/11 08:17:36;;;;;;;15.48;2.97;;;;;;;10.27;100.00;155105.66;4371272;27;20928697;-77
2022/10/11 08:20:31;;;;;;;24.73;3.08;;;;;;;10.28;100.00;155109.53;5175171;27;20437;-74
2022/10/11 08:23:26;;;;;;;16.30;3.10;;;;;;;10.39;100.00;155136.47;5183307;27;20514;-77
2022/10/11 08:26:16;;;;;;;12.63;2.55;;;;;;;10.45;100.00;155151.91;5078716;27;20841;-74
2022/10/11 08:29:11;;;;;;;12.68;3.05;;;;;;;10.50;100.00;155163.44;5101248;27;20419;-77
2022/10/11 08:32:10;;;;;;;16.77;2.75;;;;;;;10.49;100.00;155160.84;5142241;27;20130;-78
2022/10/11 08:35:10;;;;;;;13.90;3.20;;;;;;;10.41;100.00;155141.59;5125356;27;20386;-78
2022/10/11 08:38:12;;;;;;;13.82;2.85;;;;;;;10.40;100.00;155139.06;5118472;27;20376;-83
2022/10/11 08:41:36;;;;;;;17.15;3.15;;;;;;;10.42;100.00;155144.19;5119618;27;20402;-77
2022/10/11 08:44:49;;;;;;;13.43;3.42;;;;;;;10.42;100.00;155144.19;5116273;27;20395;-77
2022/10/11 08:47:49;;;;;;;14.15;3.60;;;;;;;10.55;100.00;155174.94;5101274;27;20392;-77
2022/10/11 08:50:41;;;;;;;15.10;3.47;;;;;;;10.66;100.00;155204.50;5081329;27;20403;-77
2022/10/11 08:54:18;;;;;;;16.83;3.28;;;;;;;10.87;100.00;155257.09;5104963;27;20928;-77
2022/10/11 08:57:23;;;;;;;11.57;2.80;;;;;;;10.91;100.00;155266.06;5084661;27;20431;-80
2022/10/11 09:00:15;;;;;;;19.15;3.10;;;;;;;10.88;100.00;155258.34;5089522;27;20385;-76
2022/10/11 09:03:13;;;;;;;17.70;2.90;;;;;;;10.85;100.00;155250.66;5063177;28;20384;-78
2022/10/11 09:06:12;;;;;;;13.02;2.50;;;;;;;10.87;100.00;155255.81;5102956;27;20350;-75
2022/10/11 09:09:31;;;;;;;17.52;2.47;;;;;;;10.96;100.00;155278.88;5087592;27;20425;-76
2022/10/11 09:12:25;;;;;;;16.45;2.53;;;;;;;10.93;100.00;155271.22;5066501;28;21049;-77
2022/10/11 09:15:21;;;;;;;15.82;2.60;;;;;;;11.18;100.00;155332.81;5051255;28;20407;-75
2022/10/11 09:18:15;;;;;;;13.25;2.33;;;;;;;11.30;100.00;155363.56;5005780;28;20071;-77
2022/10/11 09:20:51;;;;;;;12.82;2.53;;;;;;;11.35;100.00;155375.16;5010313;28;20528;-75
2022/10/11 09:23:29;;;;;;;17.88;2.42;;;;;;;11.42;100.00;155393.13;4989825;28;20526;-77
2022/10/11 09:26:05;;;;;;;14.35;2.17;;;;;;;11.32;100.00;155368.75;5008182;28;20788;-75
2022/10/11 09:29:01;;;;;;;14.77;2.60;;;;;;;11.45;100.00;155400.81;5002585;28;20038;-75
2022/10/11 09:31:28;;;;;;;13.02;2.35;;;;;;;11.55;100.00;155426.50;5009586;28;20038;-75
2022/10/11 09:33:54;;;;;;;15.32;2.67;;;;;;;11.71;100.00;155465.00;5030201;28;20037;-75
2022/10/11 09:36:36;;;;;;;16.77;2.70;;;;;;;11.77;100.00;155481.72;4977579;28;20046;-77
2022/10/11 09:39:09;;;;;;;14.60;2.40;;;;;;;11.83;100.00;155495.84;5017560;28;20103;-77
2022/10/11 09:41:37;;;;;;;20.55;2.60;;;;;;;11.88;100.00;155509.97;5014013;28;20026;-77
2022/10/11 09:44:06;;;;;;;19.90;2.70;;;;;;;11.88;100.00;155508.66;5002609;28;20092;-76
2022/10/11 09:46:43;;;;;;;15.10;2.40;;;;;;;11.87;100.00;155507.38;5002860;28;20164;-76
2022/10/11 09:49:15;;;;;;;21.17;2.75;;;;;;;11.85;100.00;155500.97;5005824;28;20101;-76
2022/10/11 09:51:48;;;;;;;23.02;2.35;;;;;;;11.94;100.00;155524.16;4978047;28;20038;-78
2022/10/11 09:54:13;;;;;;;16.67;2.60;;;;;;;12.02;100.00;155544.69;5003337;28;20030;-76
2022/10/11 09:56:44;;;;;;;12.50;2.83;;;;;;;12.15;100.00;155575.47;5004272;28;20042;-77
2022/10/11 09:59:27;;;;;;;17.45;2.92;;;;;;;12.20;100.00;155588.31;4978494;28;20038;-77
2022/10/11 10:02:18;;;;;;;18.73;2.40;;;;;;;12.22;100.00;155594.78;5007084;28;20041;-78
2022/10/11 10:05:02;;;;;;;16.20;2.53;;;;;;;12.30;100.00;155612.72;4989303;28;20050;-77
2022/10/11 10:07:30;;;;;;;21.85;2.92;;;;;;;12.29;100.00;155611.44;5004048;28;20054;-77
2022/10/11 10:09:56;;;;;;;13.57;2.45;;;;;;;12.38;100.00;155634.56;5006710;28;20046;-77
2022/10/11 10:12:27;;;;;;;12.25;2.30;;;;;;;12.37;100.00;155631.97;4992778;28;20044;-79
2022/10/11 10:15:03;;;;;;;12.25;2.13;;;;;;;12.54;100.00;155674.38;4978414;28;20125;-77
2022/10/11 10:17:29;;;;;;;13.98;2.40;;;;;;;12.71;100.00;155715.50;5003651;28;20792;-76
2022/10/11 10:19:59;;;;;;;24.17;3.50;;;;;;;12.76;100.00;155729.63;4995506;28;20049;-76
2022/10/11 10:22:31;;;;;;;12.82;2.30;;;;;;;12.92;100.00;155768.16;5006009;28;20251;-77
2022/10/11 10:25:00;;;;;;;15.70;3.13;;;;;;;13.12;100.00;155819.56;4973315;28;20040;-78
2022/10/11 10:27:30;;;;;;;15.52;2.75;;;;;;;13.32;100.00;155868.47;4993033;28;20128;-78
2022/10/11 10:30:08;;;;;;;12.52;2.47;;;;;;;13.66;99.90;155954.56;5005737;28;20387;-76
2022/10/11 10:32:44;;;;;;;18.20;2.50;;;;;;;13.86;100.00;156004.66;5004142;28;20192;-75
2022/10/11 10:35:28;;;;;;;10.80;1.95;;;;;;;13.94;100.00;156025.28;4989384;28;20041;-75
2022/10/11 10:38:21;;;;;;;19.75;2.65;;;;;;;13.99;100.00;156036.81;4991369;28;20144;-75
2022/10/11 10:40:51;;;;;;;15.40;2.47;;;;;;;14.03;100.00;156047.09;4994780;28;20041;-75
2022/10/11 10:43:19;;;;;;;18.02;2.67;;;;;;;13.93;98.57;156022.69;4991410;28;20042;-77
2022/10/11 10:46:28;;;;;;;12.80;2.50;;;;;;;13.46;100.00;155904.44;4973930;28;20121;-76
2022/10/11 10:49:16;;;;;;;12.13;2.58;;;;;;;13.33;100.00;155871.00;4987996;28;20043;-78
2022/10/11 10:52:04;;;;;;;12.95;2.45;;;;;;;13.53;100.00;155922.44;4994319;28;20597;-76
2022/10/11 10:54:41;;;;;;;15.93;2.40;;;;;;;13.79;100.00;155986.72;4993265;28;20038;-75
2022/10/11 10:57:17;;;;;;;14.80;2.50;;;;;;;13.94;99.22;156024.00;5002024;28;20031;-77
2022/10/11 11:00:11;;;;;;;13.75;2.40;;;;;;;14.00;98.70;156039.41;5007464;28;20034;-77
2022/10/11 11:02:55;;;;;;;16.75;2.47;;;;;;;14.23;100.00;156097.25;5003445;28;20030;-75
2022/10/11 11:05:55;;;;;;;11.85;2.33;;;;;;;14.35;96.97;156126.81;4983467;28;20121;-77
2022/10/11 11:08:29;;;;;;;16.38;2.92;;;;;;;14.37;98.49;156131.97;4950352;29;20023;-75
2022/10/11 11:11:08;;;;;;;13.93;2.30;;;;;;;14.31;92.13;156117.81;4951199;29;20102;-75
2022/10/11 11:13:43;;;;;;;11.02;2.53;;;;;;;14.36;100.00;156129.41;4951703;29;20059;-76
2022/10/11 11:16:25;;;;;;;13.48;2.13;;;;;;;14.59;99.90;156187.31;4952349;29;20035;-79
2022/10/11 11:19:36;;;;;;;8.50;2.05;;;;;;;14.97;92.65;156282.50;4957590;28;20070;-78
2022/10/11 11:22:20;;;;;;;18.15;2.53;;;;;;;15.17;96.90;156333.97;4957097;28;20051;-77
2022/10/11 11:24:46;;;;;;;16.88;2.35;;;;;;;15.01;89.16;156291.50;4971017;28;20489;-76
2022/10/11 11:27:30;;;;;;;14.25;2.17;;;;;;;14.87;89.84;156258.06;4945213;29;20083;-78
2022/10/11 11:30:15;;;;;;;14.35;2.63;;;;;;;14.72;92.51;156219.50;4953991;28;20054;-82
2022/10/11 11:33:05;;;;;;;14.18;2.80;;;;;;;14.50;90.71;156164.13;4968052;28;20031;-77
2022/10/11 11:35:38;;;;;;;16.92;2.80;;;;;;;14.42;92.05;156144.84;4934680;29;20398;-76
2022/10/11 11:38:19;;;;;;;13.98;2.25;;;;;;;14.45;95.58;156151.25;4946465;28;20054;-76
2022/10/11 11:40:56;;;;;;;11.60;2.42;;;;;;;14.56;100.00;156179.53;4948860;29;20039;-75
2022/10/11 11:43:32;;;;;;;15.75;2.67;;;;;;;14.66;93.61;156205.34;4967387;28;20082;-76
2022/10/11 11:46:05;;;;;;;13.88;2.25;;;;;;;14.70;94.91;156215.63;4953809;28;20106;-76
2022/10/11 11:48:31;;;;;;;13.35;2.17;;;;;;;14.59;97.87;156188.59;4951820;29;20129;-76
2022/10/11 11:51:00;;;;;;;20.23;2.45;;;;;;;14.52;93.58;156170.59;4951814;29;20118;-75
2022/10/11 11:54:13;;;;;;;16.02;2.50;;;;;;;14.22;93.92;156094.66;4935130;29;20113;-77
2022/10/11 11:57:07;;;;;;;16.42;2.20;;;;;;;14.18;100.00;156084.38;4910069;29;20043;-77
2022/10/11 11:59:39;;;;;;;13.80;2.30;;;;;;;14.15;100.00;156076.72;4950104;29;20039;-75
2022/10/11 12:02:08;;;;;;;14.60;2.40;;;;;;;13.97;99.89;156031.69;4934299;29;20468;-76
2022/10/11 12:04:39;;;;;;;12.65;1.90;;;;;;;13.94;97.30;156025.28;4937813;29;20097;-76
2022/10/11 12:07:09;;;;;;;14.70;2.20;;;;;;;13.79;97.29;155986.72;4953206;29;20038;-77
2022/10/11 12:09:37;;;;;;;9.13;1.80;;;;;;;13.61;94.86;155942.97;4936586;29;20043;-77
2022/10/11 12:12:24;;;;;;;16.92;2.20;;;;;;;13.43;96.97;155898.00;4950757;29;20797;-75
2022/10/11 12:15:00;;;;;;;16.35;2.85;;;;;;;13.22;100.00;155843.97;4935243;29;20035;-76
2022/10/11 12:17:27;;;;;;;14.60;2.30;;;;;;;13.08;100.00;155808.00;4935101;29;20047;-75
2022/10/11 12:20:25;;;;;;;14.10;2.53;;;;;;;13.07;100.00;155806.69;4964813;28;20531;-74
2022/10/11 12:23:28;;;;;;;14.35;2.70;;;;;;;13.10;100.00;155814.41;4949083;29;20047;-77
2022/10/11 12:26:27;;;;;;;14.13;2.28;;;;;;;13.21;100.00;155842.69;4962452;28;20043;-77
2022/10/11 12:29:41;;;;;;;12.55;2.92;;;;;;;13.31;98.20;155865.88;4946027;29;20061;-76
2022/10/11 12:32:07;;;;;;;15.15;3.00;;;;;;;13.38;99.04;155885.16;4949245;29;20031;-76
2022/10/11 12:34:35;;;;;;;15.02;2.65;;;;;;;13.41;100.00;155891.56;4949170;28;20035;-76
2022/10/11 12:37:19;;;;;;;11.68;2.28;;;;;;;13.31;98.91;155867.16;4966136;28;20070;-78
2022/10/11 12:39:47;;;;;;;12.45;2.25;;;;;;;13.27;96.59;155855.56;4952780;28;20511;-76
2022/10/11 12:42:21;;;;;;;13.68;2.47;;;;;;;13.15;99.34;155826.00;4937102;29;20507;-75
2022/10/11 12:45:23;;;;;;;18.23;2.72;;;;;;;13.24;100.00;155850.41;4966373;28;20027;-78
2022/10/11 12:47:51;;;;;;;14.73;2.42;;;;;;;13.54;99.03;155923.69;4937465;28;20085;-76
2022/10/11 12:50:50;;;;;;;9.50;1.95;;;;;;;13.66;100.00;155953.28;4933737;29;20777;-76
2022/10/11 12:53:36;;;;;;;15.90;3.03;;;;;;;13.67;100.00;155957.13;4942495;29;20043;-76